Time;durP1;ratioP1;P1;durP2;ratioP2;P2;SDS_P1;SDS_P2;PMS_P1;PMS_P2;Temp;Humidity;BMP_temperature;BMP_pressure;BME280_temperature;BME280_humidity;BME280_pressure;Samples;Min_cycle;Max_cycle;Signal;HPM_P1;HPM_P2
2021/12/01 00:00:17;;;;;;;0.60;0.60;;;5.30;99.90;;;;;;4918840;29;20603;-74
2021/12/01 00:02:42;;;;;;;0.60;0.60;;;5.30;99.90;;;;;;4918624;29;20627;-74
2021/12/01 00:05:08;;;;;;;4.53;0.70;;;5.20;99.90;;;;;;4918587;29;20459;-74
2021/12/01 00:07:37;;;;;;;3.70;0.80;;;5.10;99.90;;;;;;4918602;29;20216;-74
2021/12/01 00:10:05;;;;;;;0.70;0.60;;;5.10;99.90;;;;;;4918460;29;20423;-73
2021/12/01 00:12:30;;;;;;;0.70;0.70;;;5.10;99.90;;;;;;4918349;29;20414;-74
2021/12/01 00:14:55;;;;;;;0.57;0.57;;;5.00;99.90;;;;;;4918172;29;20419;-74
2021/12/01 00:17:21;;;;;;;0.77;0.77;;;5.00;99.90;;;;;;4918369;29;20202;-74
2021/12/01 00:19:47;;;;;;;0.67;0.67;;;4.90;99.90;;;;;;4918315;29;20604;-74
2021/12/01 00:22:12;;;;;;;0.70;0.70;;;4.90;99.90;;;;;;4916973;29;20200;-74
2021/12/01 00:24:38;;;;;;;1.13;0.60;;;4.90;99.90;;;;;;4916871;29;20186;-74
2021/12/01 00:27:03;;;;;;;0.70;0.70;;;4.90;99.90;;;;;;4917099;29;20207;-74
2021/12/01 00:29:29;;;;;;;2.13;2.03;;;4.90;99.90;;;;;;4918069;29;20274;-74
2021/12/01 00:31:55;;;;;;;0.60;0.60;;;4.90;99.90;;;;;;4917947;29;20696;-74
2021/12/01 00:34:20;;;;;;;1.67;0.63;;;4.80;99.90;;;;;;4917855;29;20185;-74
2021/12/01 00:36:46;;;;;;;0.60;0.60;;;4.80;99.90;;;;;;4918114;29;20183;-74
2021/12/01 00:39:11;;;;;;;0.50;0.50;;;4.80;99.90;;;;;;4918101;29;20184;-74
2021/12/01 00:41:37;;;;;;;1.43;0.60;;;4.80;99.90;;;;;;4918027;29;20216;-74
2021/12/01 00:44:02;;;;;;;0.93;0.70;;;4.80;99.90;;;;;;4916846;29;20217;-74
2021/12/01 00:46:45;;;;;;;0.70;0.70;;;4.80;99.90;;;;;;4917741;29;20178;-74
2021/12/01 00:49:10;;;;;;;0.87;0.60;;;4.80;99.90;;;;;;4917829;29;20254;-74
2021/12/01 00:51:36;;;;;;;0.67;0.60;;;4.80;99.90;;;;;;4917659;29;20962;-74
2021/12/01 00:54:02;;;;;;;0.80;0.80;;;4.80;99.90;;;;;;4917627;29;20199;-74
2021/12/01 00:56:28;;;;;;;0.70;0.70;;;4.80;99.90;;;;;;4917822;29;20193;-74
2021/12/01 00:58:53;;;;;;;0.80;0.70;;;4.80;99.90;;;;;;4917839;29;20466;-74
2021/12/01 05:33:09;;;;;;;0.77;0.77;;;5.80;99.90;;;;;;4949571;28;20494;-75
2021/12/01 05:35:36;;;;;;;1.20;0.77;;;5.80;99.90;;;;;;4951944;29;20434;-75
2021/12/01 05:38:06;;;;;;;1.40;0.73;;;5.90;99.90;;;;;;4955521;28;20381;-75
2021/12/01 05:40:32;;;;;;;2.20;0.70;;;5.90;99.90;;;;;;4954174;28;20463;-75
2021/12/01 05:42:58;;;;;;;0.63;0.63;;;5.90;99.90;;;;;;4955047;29;20498;-75
2021/12/01 05:45:24;;;;;;;0.80;0.70;;;6.00;99.90;;;;;;4955272;28;20411;-76
2021/12/01 05:47:50;;;;;;;0.50;0.50;;;6.00;99.90;;;;;;4955241;28;20395;-75
2021/12/01 05:50:16;;;;;;;0.60;0.60;;;6.00;99.90;;;;;;4955151;28;20190;-76
2021/12/01 05:52:42;;;;;;;0.50;0.50;;;6.00;99.90;;;;;;4955121;28;20995;-75
2021/12/01 05:55:08;;;;;;;0.50;0.50;;;6.00;99.90;;;;;;4954802;28;20431;-76
2021/12/01 05:57:34;;;;;;;3.60;0.60;;;6.00;99.90;;;;;;4955182;28;20405;-77
2021/12/01 06:00:00;;;;;;;0.70;0.70;;;6.00;99.90;;;;;;4955081;28;20393;-76
2021/12/01 06:02:26;;;;;;;0.60;0.60;;;6.00;99.90;;;;;;4954666;28;20194;-76
2021/12/01 06:04:53;;;;;;;1.67;0.60;;;6.00;99.90;;;;;;4954995;28;20512;-75
2021/12/01 06:07:19;;;;;;;1.63;0.67;;;6.00;99.90;;;;;;4954860;28;20411;-75
2021/12/01 06:09:44;;;;;;;2.03;0.60;;;6.10;99.90;;;;;;4954895;28;20784;-75
2021/12/01 06:12:14;;;;;;;1.07;0.50;;;6.10;99.90;;;;;;4954391;28;20684;-74
2021/12/01 06:14:44;;;;;;;0.50;0.50;;;6.10;99.90;;;;;;4955259;28;20183;-76
2021/12/01 06:17:10;;;;;;;0.77;0.50;;;6.10;99.90;;;;;;4955083;28;20393;-75
2021/12/01 06:19:37;;;;;;;0.50;0.50;;;6.10;99.90;;;;;;4955215;28;20418;-75
2021/12/01 06:22:03;;;;;;;0.63;0.50;;;6.20;99.90;;;;;;4954297;28;20473;-76
2021/12/01 06:24:29;;;;;;;0.40;0.40;;;6.20;99.90;;;;;;4954677;28;20389;-76
2021/12/01 06:26:54;;;;;;;0.50;0.50;;;6.20;99.90;;;;;;4954671;28;20415;-76
2021/12/01 06:29:20;;;;;;;0.90;0.60;;;6.30;99.90;;;;;;4954621;28;20181;-76
2021/12/01 06:31:45;;;;;;;1.43;0.50;;;6.30;99.90;;;;;;4954336;28;20608;-73
2021/12/01 06:34:11;;;;;;;0.50;0.50;;;6.30;99.90;;;;;;4954457;28;20243;-73
2021/12/01 06:36:36;;;;;;;0.50;0.50;;;6.40;99.90;;;;;;4954824;28;20201;-72
2021/12/01 06:39:04;;;;;;;1.40;0.40;;;6.30;99.90;;;;;;4954032;28;20175;-72
2021/12/01 06:41:29;;;;;;;1.43;0.40;;;6.40;99.90;;;;;;4953494;28;20581;-72
2021/12/01 06:43:55;;;;;;;0.40;0.40;;;6.30;99.90;;;;;;4953816;28;20406;-72
2021/12/01 06:46:22;;;;;;;0.67;0.50;;;6.30;99.90;;;;;;4954086;28;20174;-72
2021/12/01 06:48:48;;;;;;;0.40;0.40;;;6.30;99.90;;;;;;4953971;28;20174;-72
2021/12/01 06:51:14;;;;;;;0.70;0.50;;;6.40;99.90;;;;;;4953667;28;20449;-73
2021/12/01 06:53:39;;;;;;;0.50;0.40;;;6.40;99.90;;;;;;4953633;28;20180;-71
2021/12/01 06:56:05;;;;;;;0.40;0.40;;;6.40;99.90;;;;;;4953698;28;20281;-72
2021/12/01 06:58:31;;;;;;;0.70;0.50;;;6.50;99.90;;;;;;4953932;28;20254;-71
2021/12/01 07:00:57;;;;;;;0.67;0.50;;;6.50;99.90;;;;;;4953852;28;20456;-72
2021/12/01 07:03:23;;;;;;;1.13;0.50;;;6.60;99.90;;;;;;4952300;28;20278;-71
2021/12/01 07:05:48;;;;;;;0.50;0.50;;;6.60;99.90;;;;;;4953988;28;20509;-72
2021/12/01 07:08:14;;;;;;;0.60;0.60;;;6.60;99.90;;;;;;4953710;28;20655;-72
2021/12/01 07:10:39;;;;;;;0.67;0.60;;;6.70;99.90;;;;;;4954358;28;20206;-72
2021/12/01 07:13:05;;;;;;;0.50;0.50;;;6.70;99.90;;;;;;4953630;28;20870;-71
2021/12/01 07:15:31;;;;;;;0.50;0.50;;;6.80;99.90;;;;;;4953823;28;20183;-71
2021/12/01 07:17:56;;;;;;;0.53;0.53;;;6.80;99.90;;;;;;4953628;28;20175;-71
2021/12/01 07:20:22;;;;;;;1.27;0.50;;;6.80;99.90;;;;;;4952302;29;20265;-72
2021/12/01 07:22:47;;;;;;;2.03;0.40;;;6.80;99.90;;;;;;4953413;28;20243;-70
2021/12/01 07:25:13;;;;;;;5.47;0.63;;;6.90;99.90;;;;;;4953669;28;20971;-71
2021/12/01 07:27:39;;;;;;;1.57;0.60;;;6.90;99.90;;;;;;4953717;28;20176;-71
2021/12/01 07:30:06;;;;;;;0.70;0.67;;;6.90;99.90;;;;;;4953490;28;20185;-72
2021/12/01 07:32:31;;;;;;;2.00;0.53;;;6.90;99.90;;;;;;4953158;28;20815;-71
2021/12/01 07:34:57;;;;;;;3.73;0.60;;;7.00;99.90;;;;;;4953003;28;20510;-70
2021/12/01 07:37:23;;;;;;;0.60;0.50;;;7.00;99.90;;;;;;4953537;28;20178;-72
2021/12/01 07:39:48;;;;;;;0.40;0.40;;;7.00;99.90;;;;;;4953526;28;20181;-71
2021/12/01 07:42:15;;;;;;;1.53;0.50;;;7.00;99.90;;;;;;4950115;28;20698;-71
2021/12/01 07:44:41;;;;;;;0.60;0.50;;;7.00;99.90;;;;;;4953469;28;20170;-72
2021/12/01 07:47:08;;;;;;;0.60;0.60;;;7.00;99.90;;;;;;4953153;28;21143;-73
2021/12/01 07:49:34;;;;;;;1.27;0.50;;;7.10;99.90;;;;;;4953389;28;20416;-72
2021/12/01 07:52:00;;;;;;;0.90;0.50;;;7.10;99.90;;;;;;4952982;28;20444;-71
2021/12/01 07:54:26;;;;;;;0.40;0.40;;;7.10;99.90;;;;;;4953010;28;20215;-71
2021/12/01 07:56:51;;;;;;;1.10;0.47;;;7.10;99.90;;;;;;4950071;28;20411;-71
2021/12/01 07:59:17;;;;;;;0.60;0.60;;;7.10;99.90;;;;;;4965329;28;20183;-72
2021/12/01 08:01:43;;;;;;;0.50;0.40;;;7.20;99.90;;;;;;4971991;28;20620;-72
2021/12/01 08:04:10;;;;;;;0.50;0.50;;;7.20;99.90;;;;;;4972453;28;20204;-71
2021/12/01 08:06:36;;;;;;;1.80;0.40;;;7.20;99.90;;;;;;4975849;28;20414;-71
2021/12/01 08:09:02;;;;;;;0.40;0.40;;;7.30;99.90;;;;;;4975822;28;20477;-71
2021/12/01 08:11:28;;;;;;;0.80;0.40;;;7.30;99.90;;;;;;4975885;28;20206;-73
2021/12/01 08:13:54;;;;;;;3.23;0.57;;;7.30;99.90;;;;;;4975588;28;20420;-72
2021/12/01 08:16:20;;;;;;;0.70;0.40;;;7.30;99.90;;;;;;4975408;28;20180;-72
2021/12/01 08:18:51;;;;;;;1.00;0.40;;;7.40;99.90;;;;;;4974658;28;20175;-71
2021/12/01 08:21:17;;;;;;;1.67;0.40;;;7.50;99.90;;;;;;4975656;28;20209;-71
2021/12/01 08:23:43;;;;;;;0.50;0.50;;;7.50;99.90;;;;;;4975499;28;20415;-72
2021/12/01 08:26:08;;;;;;;0.40;0.40;;;7.50;99.90;;;;;;4975243;28;20847;-72
2021/12/01 08:28:33;;;;;;;0.50;0.40;;;7.50;99.90;;;;;;4975687;28;20255;-72
2021/12/01 08:30:59;;;;;;;0.40;0.40;;;7.60;99.90;;;;;;4975339;28;20227;-73
2021/12/01 08:33:25;;;;;;;0.90;0.40;;;7.60;99.90;;;;;;4975423;28;20177;-72
2021/12/01 08:35:51;;;;;;;0.50;0.50;;;7.70;99.90;;;;;;4975358;28;20178;-72
2021/12/01 08:38:16;;;;;;;1.30;0.47;;;7.70;99.90;;;;;;4975326;28;20190;-73
2021/12/01 08:40:42;;;;;;;0.83;0.43;;;7.80;99.90;;;;;;4975417;28;20673;-73
2021/12/01 08:43:08;;;;;;;0.60;0.50;;;7.90;99.90;;;;;;4975302;28;20173;-73
2021/12/01 08:45:34;;;;;;;0.40;0.40;;;7.90;99.90;;;;;;4975407;28;20183;-72
2021/12/01 08:48:00;;;;;;;0.60;0.40;;;8.00;99.90;;;;;;4974974;28;20404;-72
2021/12/01 08:50:25;;;;;;;0.40;0.40;;;8.10;99.90;;;;;;4975249;28;20174;-71
2021/12/01 08:52:51;;;;;;;6.03;0.50;;;8.20;99.90;;;;;;4974776;28;20195;-72
2021/12/01 08:55:17;;;;;;;0.40;0.40;;;8.20;99.90;;;;;;4975083;28;20525;-72
2021/12/01 08:57:43;;;;;;;1.47;0.40;;;8.30;99.90;;;;;;4974598;28;20173;-71
2021/12/01 09:00:09;;;;;;;0.50;0.40;;;8.30;99.90;;;;;;4974901;28;20772;-70
2021/12/01 09:02:35;;;;;;;0.40;0.40;;;8.40;99.90;;;;;;4974735;28;20203;-73
2021/12/01 09:05:00;;;;;;;0.50;0.40;;;8.70;99.90;;;;;;4975011;28;20501;-73
2021/12/01 09:07:26;;;;;;;0.40;0.40;;;9.30;99.90;;;;;;4974510;28;20193;-72
2021/12/01 09:09:51;;;;;;;0.53;0.40;;;10.00;99.90;;;;;;4973537;28;20238;-72
2021/12/01 09:12:18;;;;;;;0.50;0.30;;;10.60;99.90;;;;;;4971296;28;20206;-71
2021/12/01 09:14:44;;;;;;;0.40;0.40;;;11.10;99.90;;;;;;4955446;28;20552;-71
2021/12/01 09:17:12;;;;;;;0.67;0.40;;;11.60;99.90;;;;;;4955262;28;20476;-73
2021/12/01 09:19:38;;;;;;;0.40;0.40;;;11.90;99.90;;;;;;4955428;28;20570;-72
2021/12/01 09:22:04;;;;;;;0.50;0.40;;;11.60;99.90;;;;;;4955430;28;20478;-73
2021/12/01 09:24:30;;;;;;;0.87;0.50;;;11.30;99.90;;;;;;4955365;28;20927;-72
2021/12/01 09:26:56;;;;;;;0.40;0.40;;;10.80;99.90;;;;;;4955093;28;20207;-69
2021/12/01 09:29:22;;;;;;;0.43;0.40;;;10.40;99.90;;;;;;4955728;28;20541;-72
2021/12/01 09:31:48;;;;;;;0.40;0.40;;;10.10;99.90;;;;;;4955222;28;20465;-72
2021/12/01 09:34:14;;;;;;;0.40;0.30;;;9.90;99.90;;;;;;4955163;28;20202;-70
2021/12/01 09:36:40;;;;;;;0.40;0.30;;;9.80;99.90;;;;;;4955485;28;20190;-73
2021/12/01 09:39:06;;;;;;;0.70;0.40;;;9.70;99.90;;;;;;4955173;28;20421;-71
2021/12/01 09:41:33;;;;;;;2.90;0.40;;;9.50;99.90;;;;;;4954976;29;20558;-72
2021/12/01 09:43:59;;;;;;;0.47;0.40;;;9.40;99.90;;;;;;4954738;28;20390;-71
2021/12/01 09:46:27;;;;;;;0.70;0.40;;;9.30;99.90;;;;;;4954941;28;20929;-72
2021/12/01 09:48:53;;;;;;;0.60;0.40;;;9.20;99.90;;;;;;4955099;28;20183;-70
2021/12/01 09:51:19;;;;;;;0.40;0.40;;;9.10;99.90;;;;;;4955340;28;20448;-72
2021/12/01 09:53:45;;;;;;;0.50;0.40;;;9.00;99.90;;;;;;4954698;28;20180;-72
2021/12/01 09:56:11;;;;;;;0.50;0.40;;;9.00;99.90;;;;;;4954850;28;20418;-72
2021/12/01 09:58:37;;;;;;;0.40;0.40;;;9.00;99.90;;;;;;4956190;28;20414;-72
2021/12/01 10:01:06;;;;;;;0.40;0.30;;;9.00;99.90;;;;;;4954705;28;20217;-72
2021/12/01 10:03:33;;;;;;;0.57;0.40;;;9.10;99.90;;;;;;4954592;28;20538;-71
2021/12/01 10:06:17;;;;;;;0.40;0.40;;;9.10;99.90;;;;;;4954378;28;20425;-72
2021/12/01 10:08:57;;;;;;;1.60;0.50;;;9.10;99.90;;;;;;4954769;28;20499;-72
2021/12/01 10:11:32;;;;;;;0.60;0.40;;;9.20;99.90;;;;;;4954502;28;20446;-72
2021/12/01 10:14:00;;;;;;;0.83;0.40;;;9.30;99.90;;;;;;4954223;28;20417;-71
2021/12/01 10:16:29;;;;;;;0.77;0.40;;;9.40;99.90;;;;;;4954341;28;20414;-72
2021/12/01 10:19:00;;;;;;;0.90;0.30;;;9.50;99.90;;;;;;4954202;28;20414;-72
2021/12/01 10:21:28;;;;;;;0.40;0.40;;;9.50;99.90;;;;;;4954560;28;20623;-73
2021/12/01 10:24:00;;;;;;;0.50;0.40;;;9.50;99.90;;;;;;4954146;28;21140;-72
2021/12/01 10:26:26;;;;;;;0.40;0.30;;;9.50;99.90;;;;;;4953873;28;20418;-72
2021/12/01 10:28:59;;;;;;;0.50;0.43;;;9.60;99.90;;;;;;4954316;28;20418;-72
2021/12/01 10:31:35;;;;;;;0.40;0.40;;;9.70;99.90;;;;;;4954220;28;20844;-72
2021/12/01 10:34:16;;;;;;;0.40;0.40;;;9.90;99.90;;;;;;4953876;28;20431;-71
2021/12/01 10:36:43;;;;;;;0.40;0.40;;;10.00;99.90;;;;;;4954044;28;20398;-71
2021/12/01 10:39:09;;;;;;;0.50;0.40;;;10.10;99.90;;;;;;4954121;28;20427;-72
2021/12/01 10:41:36;;;;;;;0.80;0.30;;;10.30;99.90;;;;;;4953997;28;20475;-71
2021/12/01 10:44:17;;;;;;;0.60;0.40;;;10.40;99.90;;;;;;4953812;28;20195;-71
2021/12/01 10:46:51;;;;;;;2.37;0.47;;;10.30;99.90;;;;;;4953850;28;20423;-72
2021/12/01 10:49:35;;;;;;;0.40;0.30;;;10.10;99.90;;;;;;4954077;28;20422;-71
2021/12/01 10:52:00;;;;;;;0.30;0.30;;;10.10;99.90;;;;;;4953588;28;20440;-71
2021/12/01 10:54:26;;;;;;;0.40;0.40;;;10.00;99.90;;;;;;4953669;28;20773;-71
2021/12/01 10:57:21;;;;;;;0.40;0.40;;;10.00;99.90;;;;;;4953518;28;20237;-72
2021/12/01 10:59:52;;;;;;;0.50;0.40;;;10.10;99.90;;;;;;4953738;28;20180;-71
2021/12/01 11:02:19;;;;;;;0.30;0.30;;;10.10;99.90;;;;;;4953652;28;20470;-73
2021/12/01 11:04:50;;;;;;;0.30;0.30;;;10.20;99.90;;;;;;4953453;28;20785;-73
2021/12/01 11:07:27;;;;;;;0.80;0.30;;;10.10;99.90;;;;;;4953447;28;20787;-73
2021/12/01 11:10:28;;;;;;;0.40;0.40;;;10.10;99.90;;;;;;4953227;28;20428;-72
2021/12/01 11:13:02;;;;;;;0.40;0.40;;;10.10;99.90;;;;;;4931715;29;20449;-72
2021/12/01 11:15:35;;;;;;;0.30;0.30;;;10.00;99.90;;;;;;4950249;28;20423;-72
2021/12/01 11:18:02;;;;;;;0.50;0.40;;;10.10;99.90;;;;;;4953488;28;20474;-71
2021/12/01 11:20:48;;;;;;;0.60;0.30;;;10.00;99.90;;;;;;4953211;28;20536;-70
2021/12/01 11:23:24;;;;;;;0.40;0.40;;;9.90;99.90;;;;;;4953318;28;20436;-71
2021/12/01 11:25:52;;;;;;;0.50;0.40;;;9.90;99.90;;;;;;4952943;28;20419;-71
2021/12/01 11:28:20;;;;;;;0.40;0.30;;;9.90;99.90;;;;;;4953220;28;20440;-72
2021/12/01 11:30:52;;;;;;;0.40;0.30;;;9.90;99.90;;;;;;4952971;28;20424;-72
2021/12/01 11:33:19;;;;;;;0.40;0.30;;;9.80;99.90;;;;;;4952843;28;20424;-71
2021/12/01 11:35:48;;;;;;;0.87;0.40;;;9.90;99.90;;;;;;4953000;28;20419;-71
2021/12/01 11:38:14;;;;;;;0.50;0.30;;;9.90;99.90;;;;;;4952608;28;20838;-72
2021/12/01 11:40:40;;;;;;;0.40;0.30;;;9.90;99.90;;;;;;4956732;28;20836;-72
2021/12/01 11:43:09;;;;;;;4.00;0.40;;;10.10;99.90;;;;;;4956794;28;20472;-72
2021/12/01 11:45:41;;;;;;;0.40;0.30;;;10.10;99.90;;;;;;4957168;28;20849;-72
2021/12/01 11:48:15;;;;;;;1.57;0.40;;;10.30;99.90;;;;;;4957267;28;20418;-72
2021/12/01 11:50:59;;;;;;;0.60;0.40;;;10.50;99.90;;;;;;4957026;28;20419;-72
2021/12/01 11:53:33;;;;;;;0.40;0.40;;;10.60;99.90;;;;;;4957299;28;20414;-72
2021/12/01 11:56:25;;;;;;;0.40;0.40;;;10.70;99.90;;;;;;4956668;28;20866;-71
2021/12/01 11:58:58;;;;;;;0.50;0.40;;;10.70;99.90;;;;;;4954170;29;21018;-72
2021/12/01 12:01:24;;;;;;;0.40;0.40;;;11.00;99.90;;;;;;4957317;28;20474;-72
2021/12/01 12:04:01;;;;;;;0.40;0.30;;;11.20;99.90;;;;;;4956918;28;20454;-71
2021/12/01 12:06:31;;;;;;;0.40;0.30;;;11.30;99.90;;;;;;4957081;28;20217;-72
2021/12/01 12:08:58;;;;;;;0.70;0.40;;;11.50;99.90;;;;;;4956663;28;20427;-73
2021/12/01 12:11:39;;;;;;;0.47;0.40;;;11.50;99.90;;;;;;4957219;28;20451;-71
2021/12/01 12:14:11;;;;;;;0.40;0.30;;;11.60;99.90;;;;;;4956365;28;20481;-71
2021/12/01 12:16:38;;;;;;;0.50;0.40;;;11.60;99.90;;;;;;4956630;28;20920;-72
2021/12/01 12:19:04;;;;;;;0.93;0.40;;;11.70;99.90;;;;;;4956303;28;20505;-72
2021/12/01 12:24:07;;;;;;;0.70;0.40;;;11.80;99.90;;;;;;4954888;28;20189;-72
2021/12/01 12:26:40;;;;;;;0.50;0.50;;;11.90;99.90;;;;;;4955163;28;20791;-72
2021/12/01 12:29:09;;;;;;;1.73;0.60;;;12.00;99.90;;;;;;4956106;28;20519;-72
2021/12/01 12:31:35;;;;;;;0.50;0.40;;;12.00;99.90;;;;;;4956169;28;20503;-73
2021/12/01 12:34:07;;;;;;;0.40;0.37;;;11.90;99.90;;;;;;4956093;28;20432;-73
2021/12/01 12:36:42;;;;;;;0.60;0.40;;;11.70;99.90;;;;;;4956242;28;20192;-73
2021/12/01 12:39:10;;;;;;;0.50;0.50;;;11.60;99.90;;;;;;4956163;28;20419;-73
2021/12/01 12:41:54;;;;;;;0.60;0.50;;;11.30;99.90;;;;;;4954764;29;20498;-73
2021/12/01 12:44:39;;;;;;;0.50;0.47;;;11.30;99.90;;;;;;4956360;28;20498;-73
2021/12/01 12:47:07;;;;;;;0.73;0.50;;;11.10;99.90;;;;;;4956350;28;20765;-72
2021/12/01 12:49:37;;;;;;;0.50;0.40;;;11.10;99.90;;;;;;4955978;28;21142;-71
2021/12/01 12:52:24;;;;;;;0.50;0.50;;;10.90;99.90;;;;;;4956080;28;20817;-72
2021/12/01 12:55:15;;;;;;;1.17;0.50;;;10.90;99.90;;;;;;4953389;28;20411;-71
2021/12/01 12:57:48;;;;;;;0.40;0.40;;;10.70;99.90;;;;;;4955918;28;20441;-72
2021/12/01 13:00:20;;;;;;;0.93;0.50;;;10.60;99.90;;;;;;4955547;28;20416;-72
2021/12/01 13:02:45;;;;;;;0.70;0.70;;;10.60;99.90;;;;;;4954739;29;20423;-71
2021/12/01 13:05:12;;;;;;;0.80;0.50;;;10.40;99.90;;;;;;4956141;28;20506;-72
2021/12/01 13:07:40;;;;;;;0.70;0.50;;;10.30;99.90;;;;;;4954738;29;20174;-73
2021/12/01 13:10:10;;;;;;;0.50;0.50;;;10.20;99.90;;;;;;4955757;28;20415;-72
2021/12/01 13:12:46;;;;;;;1.37;0.70;;;10.20;99.90;;;;;;4955650;28;20442;-72
2021/12/01 13:15:30;;;;;;;0.70;0.40;;;10.20;99.90;;;;;;4955930;28;20413;-72
2021/12/01 13:18:02;;;;;;;1.40;0.60;;;10.20;99.90;;;;;;4955250;28;20472;-72
2021/12/01 13:20:31;;;;;;;0.40;0.40;;;10.20;99.90;;;;;;4955750;28;20420;-72
2021/12/01 13:23:09;;;;;;;0.53;0.53;;;10.10;99.90;;;;;;4954976;28;20511;-72
2021/12/01 13:25:40;;;;;;;0.50;0.40;;;10.10;99.90;;;;;;4955382;28;20406;-72
2021/12/01 13:28:06;;;;;;;0.80;0.50;;;10.00;99.90;;;;;;4955107;28;20490;-71
2021/12/01 13:30:34;;;;;;;0.70;0.50;;;10.10;99.90;;;;;;4956148;28;20820;-71
2021/12/01 13:33:12;;;;;;;0.43;0.40;;;10.10;99.90;;;;;;4955136;28;20434;-71
2021/12/01 13:35:39;;;;;;;0.50;0.50;;;10.10;99.90;;;;;;4955613;28;20437;-72
2021/12/01 13:38:05;;;;;;;0.40;0.40;;;10.10;99.90;;;;;;4956231;28;20935;-72
2021/12/01 13:40:31;;;;;;;0.40;0.40;;;10.10;99.90;;;;;;4956650;28;20456;-71
2021/12/01 13:42:57;;;;;;;0.50;0.50;;;10.10;99.90;;;;;;4955159;28;20450;-72
2021/12/01 13:45:24;;;;;;;1.27;0.50;;;10.10;99.90;;;;;;4955277;28;20881;-72
2021/12/01 13:47:52;;;;;;;0.50;0.50;;;10.10;99.90;;;;;;4954831;28;20173;-71
2021/12/01 13:50:19;;;;;;;0.50;0.40;;;10.10;99.90;;;;;;4955053;28;20770;-72
2021/12/01 13:52:49;;;;;;;0.60;0.60;;;10.00;99.90;;;;;;4954719;28;20441;-70
2021/12/01 13:55:34;;;;;;;0.60;0.40;;;9.90;99.90;;;;;;4955171;28;20448;-71
2021/12/01 13:58:09;;;;;;;0.70;0.70;;;9.90;99.90;;;;;;4954770;28;20410;-71
2021/12/01 14:00:47;;;;;;;0.63;0.63;;;9.80;99.90;;;;;;4954753;28;20992;-71
2021/12/01 14:03:15;;;;;;;0.50;0.50;;;9.80;99.90;;;;;;4954414;28;20731;-71
2021/12/01 14:05:46;;;;;;;1.03;0.50;;;9.70;99.90;;;;;;4953473;29;20502;-71
2021/12/01 14:08:11;;;;;;;0.80;0.80;;;9.60;99.90;;;;;;4954654;28;20474;-72
2021/12/01 14:10:57;;;;;;;0.50;0.40;;;9.60;99.90;;;;;;4954656;28;20761;-71
2021/12/01 14:13:24;;;;;;;1.00;1.00;;;9.50;99.90;;;;;;4954363;28;20187;-71
2021/12/01 14:15:51;;;;;;;0.50;0.50;;;9.40;99.90;;;;;;4951795;28;20424;-72
2021/12/01 14:18:18;;;;;;;1.23;0.93;;;9.30;99.90;;;;;;4954301;28;20493;-71
2021/12/01 14:20:44;;;;;;;0.60;0.53;;;9.20;99.90;;;;;;4954264;28;20467;-72
2021/12/01 14:23:10;;;;;;;0.50;0.50;;;9.20;99.90;;;;;;4953974;28;20416;-72
2021/12/01 14:25:37;;;;;;;0.70;0.50;;;9.20;99.90;;;;;;4954095;28;20990;-72
2021/12/01 14:28:11;;;;;;;1.37;0.50;;;9.20;99.90;;;;;;4953930;28;20512;-71
2021/12/01 14:30:39;;;;;;;1.07;0.40;;;9.10;99.90;;;;;;4953081;29;20425;-71
2021/12/01 14:33:09;;;;;;;0.43;0.40;;;9.10;99.90;;;;;;4953685;28;20440;-71
2021/12/01 14:35:35;;;;;;;0.60;0.60;;;9.00;99.90;;;;;;4952741;29;20517;-71
2021/12/01 14:38:01;;;;;;;0.80;0.80;;;9.00;99.90;;;;;;4953764;28;20912;-71
2021/12/01 14:40:26;;;;;;;1.17;0.70;;;9.00;99.90;;;;;;4954067;28;20489;-72
2021/12/01 14:42:54;;;;;;;0.70;0.70;;;8.90;99.90;;;;;;4953437;28;20225;-71
2021/12/01 14:45:24;;;;;;;1.93;0.60;;;8.80;99.90;;;;;;4954230;28;20174;-71
2021/12/01 14:48:05;;;;;;;0.40;0.40;;;8.80;99.90;;;;;;4953593;28;20409;-71
2021/12/01 14:50:32;;;;;;;0.50;0.50;;;8.80;99.90;;;;;;4953675;28;20409;-71
2021/12/01 14:53:02;;;;;;;1.27;0.50;;;8.80;99.90;;;;;;4953325;28;20442;-71
2021/12/01 14:55:32;;;;;;;0.40;0.40;;;8.80;99.90;;;;;;4953570;28;20418;-71
2021/12/01 14:57:57;;;;;;;0.90;0.40;;;8.70;99.90;;;;;;4953595;28;20497;-72
2021/12/01 15:00:27;;;;;;;0.50;0.43;;;8.70;99.90;;;;;;4953748;28;20471;-72
2021/12/01 15:02:53;;;;;;;1.50;0.60;;;8.70;99.90;;;;;;4951962;29;20229;-72
2021/12/01 15:05:20;;;;;;;2.00;0.40;;;8.70;99.90;;;;;;4953809;28;20431;-72
2021/12/01 15:07:54;;;;;;;0.50;0.40;;;8.70;99.90;;;;;;4953640;28;20418;-71
2021/12/01 15:10:26;;;;;;;3.37;0.50;;;8.60;99.90;;;;;;4953871;28;20434;-72
2021/12/01 15:13:03;;;;;;;0.47;0.40;;;8.60;99.90;;;;;;4953414;28;20434;-71
2021/12/01 15:15:31;;;;;;;0.40;0.40;;;8.60;99.90;;;;;;4953720;28;20403;-71
2021/12/01 15:18:09;;;;;;;0.93;0.50;;;8.50;99.90;;;;;;4953263;28;20914;-72
2021/12/01 15:20:49;;;;;;;0.50;0.50;;;8.60;99.90;;;;;;4953305;28;20501;-72
2021/12/01 15:23:14;;;;;;;0.47;0.40;;;8.50;99.90;;;;;;4953261;28;20430;-71
2021/12/01 15:25:40;;;;;;;0.60;0.43;;;8.40;99.90;;;;;;4953479;28;20476;-71
2021/12/01 15:28:09;;;;;;;0.40;0.40;;;8.40;99.90;;;;;;4952284;28;20174;-72
2021/12/01 15:30:36;;;;;;;0.40;0.40;;;8.40;99.90;;;;;;4951431;28;20329;-72
2021/12/01 15:33:06;;;;;;;0.70;0.40;;;8.40;99.90;;;;;;4952192;28;20465;-71
2021/12/01 15:35:32;;;;;;;0.43;0.43;;;8.50;99.90;;;;;;4955294;28;20764;-71
2021/12/01 15:37:57;;;;;;;0.47;0.47;;;8.50;99.90;;;;;;4951714;28;20432;-68
2021/12/01 15:40:23;;;;;;;0.60;0.50;;;8.50;99.90;;;;;;4951672;28;20667;-72
2021/12/01 15:42:48;;;;;;;0.50;0.50;;;8.50;99.90;;;;;;4969270;28;20772;-69
2021/12/01 15:45:14;;;;;;;0.40;0.40;;;8.50;99.90;;;;;;4969675;28;20780;-70
2021/12/01 15:47:40;;;;;;;0.50;0.50;;;8.50;99.90;;;;;;4970245;28;20519;-70
2021/12/01 15:50:06;;;;;;;0.77;0.43;;;8.50;99.90;;;;;;4969533;28;20189;-71
2021/12/01 15:52:33;;;;;;;0.50;0.40;;;8.60;99.90;;;;;;4969260;28;20441;-71
2021/12/01 15:55:00;;;;;;;0.50;0.40;;;8.60;99.90;;;;;;4967116;28;20450;-70
2021/12/01 15:57:26;;;;;;;0.60;0.50;;;8.60;99.90;;;;;;4960179;28;20515;-72
2021/12/01 15:59:53;;;;;;;1.37;0.50;;;8.60;99.90;;;;;;4962157;28;20427;-71
2021/12/01 16:02:19;;;;;;;0.40;0.40;;;8.40;99.90;;;;;;4956320;28;20584;-71
2021/12/01 16:04:44;;;;;;;0.50;0.40;;;8.40;99.90;;;;;;4950089;28;20996;-73
2021/12/01 16:07:10;;;;;;;0.50;0.40;;;8.50;99.90;;;;;;4950005;28;20463;-73
2021/12/01 16:09:36;;;;;;;1.67;0.40;;;8.50;99.90;;;;;;4948898;28;20279;-72
2021/12/01 16:12:02;;;;;;;3.50;1.40;;;8.40;99.90;;;;;;4949052;28;20207;-72
2021/12/01 16:14:28;;;;;;;0.60;0.60;;;8.40;99.90;;;;;;4950128;28;20607;-72
2021/12/01 16:16:53;;;;;;;9.67;4.27;;;8.40;99.90;;;;;;4959059;28;20429;-73
2021/12/01 16:19:19;;;;;;;0.67;0.60;;;8.40;99.90;;;;;;4960300;28;20190;-73
2021/12/01 16:21:46;;;;;;;3.80;1.00;;;8.30;99.90;;;;;;4966357;28;20223;-73
2021/12/01 16:24:12;;;;;;;1.03;0.50;;;8.30;99.90;;;;;;4957036;28;20219;-73
2021/12/01 16:26:37;;;;;;;1.40;1.30;;;8.30;99.90;;;;;;4971251;28;20450;-73
2021/12/01 16:29:04;;;;;;;0.60;0.60;;;8.20;99.90;;;;;;4954564;28;20447;-73
2021/12/01 16:31:30;;;;;;;1.00;0.70;;;8.20;99.90;;;;;;4953272;28;20210;-73
2021/12/01 16:33:56;;;;;;;0.60;0.60;;;8.10;99.90;;;;;;4950632;28;21042;-73
2021/12/01 16:36:25;;;;;;;1.27;0.70;;;8.10;99.90;;;;;;4953122;28;20534;-73
2021/12/01 16:38:51;;;;;;;0.97;0.40;;;8.10;99.90;;;;;;4952594;28;20427;-72
2021/12/01 16:41:16;;;;;;;1.10;0.60;;;8.10;99.90;;;;;;4963519;28;20999;-73
2021/12/01 16:43:45;;;;;;;0.40;0.40;;;8.20;99.90;;;;;;4953596;28;20276;-73
2021/12/01 16:46:11;;;;;;;0.80;0.60;;;8.20;99.90;;;;;;4952828;28;20179;-73
2021/12/01 16:48:36;;;;;;;0.50;0.50;;;8.20;99.90;;;;;;4954027;28;20417;-73
2021/12/01 16:51:03;;;;;;;0.93;0.80;;;8.20;99.90;;;;;;4939787;28;20256;-73
2021/12/01 16:53:30;;;;;;;0.50;0.50;;;8.20;99.90;;;;;;4947899;28;20257;-73
2021/12/01 16:55:56;;;;;;;0.50;0.50;;;8.20;99.90;;;;;;4952789;28;20464;-73
2021/12/01 16:58:21;;;;;;;2.17;0.70;;;8.30;99.90;;;;;;4952401;28;20484;-73
2021/12/01 17:00:48;;;;;;;0.50;0.50;;;8.30;99.90;;;;;;4952567;28;20212;-72
2021/12/01 17:03:26;;;;;;;0.60;0.50;;;8.30;99.90;;;;;;4939609;28;20231;-73
2021/12/01 17:05:56;;;;;;;1.00;0.43;;;8.30;99.90;;;;;;4931963;29;20964;-72
2021/12/01 17:08:30;;;;;;;0.50;0.50;;;8.30;99.90;;;;;;4946654;28;20473;-73
2021/12/01 17:10:57;;;;;;;0.53;0.50;;;8.30;99.90;;;;;;4951094;28;20500;-73
2021/12/01 17:13:23;;;;;;;3.10;1.57;;;8.30;99.90;;;;;;4961810;28;20506;-72
2021/12/01 17:15:50;;;;;;;1.87;0.70;;;8.30;99.90;;;;;;4939628;28;20450;-73
2021/12/01 17:18:17;;;;;;;0.50;0.50;;;8.30;99.90;;;;;;4932754;28;20846;-74
2021/12/01 17:20:42;;;;;;;0.60;0.50;;;8.30;99.90;;;;;;4931701;29;20888;-73
2021/12/01 17:23:09;;;;;;;8.00;0.80;;;8.30;99.90;;;;;;4932510;28;20524;-73
2021/12/01 17:25:35;;;;;;;2.53;1.10;;;8.30;99.90;;;;;;4938512;29;20301;-72
2021/12/01 17:28:00;;;;;;;0.53;0.50;;;8.30;99.90;;;;;;4953810;28;20481;-73
2021/12/01 17:30:31;;;;;;;1.60;1.50;;;8.30;99.90;;;;;;4944692;28;20968;-73
2021/12/01 17:32:57;;;;;;;1.53;0.63;;;8.40;99.90;;;;;;4949876;28;20228;-73
2021/12/01 17:35:28;;;;;;;0.73;0.70;;;8.40;99.90;;;;;;4948858;28;20474;-72